createdAt,value
2019-06-07T00:02:31.765Z,25.17
2019-06-07T00:05:07.675Z,25.11
2019-06-07T00:07:41.027Z,25.10
2019-06-07T00:10:33.193Z,25.06
2019-06-07T00:12:48.656Z,24.98
2019-06-07T00:15:28.663Z,24.89
2019-06-07T00:17:56.333Z,24.82
2019-06-07T00:20:29.476Z,24.75
2019-06-07T00:23:02.739Z,24.75
2019-06-07T00:25:36.066Z,24.67
2019-06-07T00:28:10.586Z,24.60
2019-06-07T00:30:51.587Z,24.61
2019-06-07T00:33:24.055Z,24.60
2019-06-07T00:35:53.645Z,24.46
2019-06-07T00:38:26.803Z,24.47
2019-06-07T00:41:00.137Z,24.41
2019-06-07T00:43:33.399Z,24.36
2019-06-07T00:46:06.731Z,24.31
2019-06-07T00:48:39.992Z,24.20
2019-06-07T00:51:14.032Z,24.16
2019-06-07T00:53:47.801Z,24.09
2019-06-07T00:56:22.209Z,24.09
2019-06-07T00:59:10.665Z,23.84
2019-06-07T01:01:29.865Z,23.47
2019-06-07T01:04:03.184Z,23.15
2019-06-07T01:06:36.462Z,22.93
2019-06-07T01:09:10.302Z,22.80
2019-06-07T01:11:43.578Z,22.72
2019-06-07T01:14:19.384Z,22.70
2019-06-07T01:17:01.276Z,22.66
2019-06-07T01:19:27.858Z,22.65
2019-06-07T01:22:01.237Z,22.63
2019-06-07T01:24:34.721Z,22.59
2019-06-07T01:27:08.158Z,22.59
2019-06-07T01:29:41.416Z,22.50
2019-06-07T01:32:17.504Z,22.42
2019-06-07T01:34:49.254Z,22.28
2019-06-07T01:37:26.185Z,22.13
2019-06-07T01:39:56.995Z,22.03
2019-06-07T01:42:31.150Z,21.90
2019-06-07T01:45:10.352Z,21.86
2019-06-07T01:47:43.532Z,21.82
2019-06-07T01:50:17.243Z,21.75
2019-06-07T01:52:51.110Z,21.61
2019-06-07T01:55:28.751Z,21.52
2019-06-07T01:57:59.085Z,21.59
2019-06-07T02:00:32.906Z,21.67
2019-06-07T02:03:06.413Z,21.76
2019-06-07T02:05:39.632Z,21.74
2019-06-07T02:10:45.032Z,21.63
2019-06-07T02:13:18.782Z,21.73
2019-06-07T02:15:52.005Z,21.77
2019-06-07T02:18:28.241Z,21.68
2019-06-07T02:21:00.533Z,21.58
2019-06-07T02:26:06.861Z,21.72
2019-06-07T02:28:45.527Z,21.74
2019-06-07T02:31:14.551Z,21.78
2019-06-07T02:33:47.855Z,21.86
2019-06-07T02:36:25.459Z,21.86
2019-06-07T02:38:55.563Z,21.86
2019-06-07T02:41:35.240Z,21.97
2019-06-07T02:44:03.665Z,22.00
2019-06-07T02:46:46.725Z,22.03
2019-06-07T02:49:11.324Z,21.94
2019-06-07T02:51:44.577Z,21.87
2019-06-07T02:54:17.977Z,21.83
2019-06-07T02:56:57.947Z,21.82
2019-06-07T02:59:47.065Z,21.82
2019-06-07T03:02:00.078Z,21.69
2019-06-07T03:04:40.459Z,21.71
2019-06-07T03:07:07.776Z,21.79
2019-06-07T03:09:42.399Z,21.75
2019-06-07T03:12:15.057Z,21.75
2019-06-07T03:14:48.370Z,21.76
2019-06-07T03:17:23.273Z,21.66
2019-06-07T03:20:00.963Z,21.67
2019-06-07T03:22:38.017Z,21.80
2019-06-07T03:25:09.296Z,21.85
2019-06-07T03:27:49.425Z,21.87
2019-06-07T03:32:52.314Z,21.86
2019-06-07T03:35:27.617Z,21.83
2019-06-07T03:37:59.938Z,21.85
2019-06-07T03:40:36.864Z,21.90
2019-06-07T03:43:07.603Z,21.87
2019-06-07T03:45:41.662Z,21.99
2019-06-07T03:48:14.602Z,22.11
2019-06-07T03:50:47.913Z,22.16
2019-06-07T03:53:21.183Z,22.16
2019-06-07T03:55:54.539Z,22.24
2019-06-07T03:58:34.691Z,22.19
2019-06-07T04:01:02.304Z,22.10
2019-06-07T04:03:43.612Z,22.09
2019-06-07T04:06:09.985Z,22.07
2019-06-07T13:37:27.650Z,27.58
2019-06-07T13:40:00.503Z,27.62
2019-06-07T13:42:33.846Z,27.74
2019-06-07T13:45:07.366Z,27.92
2019-06-07T13:47:40.721Z,28.10
2019-06-07T13:50:14.008Z,28.27
2019-06-07T13:52:48.497Z,28.41
2019-06-07T13:55:21.979Z,28.54
2019-06-07T13:57:55.457Z,28.60
2019-06-07T14:00:28.724Z,28.70
2019-06-07T14:03:02.084Z,28.80
2019-06-07T14:05:35.247Z,28.85
2019-06-07T14:08:08.386Z,28.90
2019-06-07T14:10:41.477Z,28.95
2019-06-07T14:13:14.715Z,28.99
2019-06-07T14:15:47.971Z,29.00
2019-06-07T14:18:22.513Z,29.03
2019-06-07T14:20:58.826Z,29.07
2019-06-07T14:23:45.932Z,29.06
2019-06-07T14:26:04.601Z,29.07
2019-06-07T14:28:37.958Z,29.08
2019-06-07T14:31:11.219Z,29.12
2019-06-07T14:33:44.603Z,29.13
2019-06-07T14:36:17.911Z,29.12
2019-06-07T14:38:51.141Z,29.02
2019-06-07T14:41:25.181Z,28.91
2019-06-07T14:43:58.408Z,28.86
2019-06-07T14:46:32.157Z,28.85
2019-06-07T14:49:05.560Z,28.90
2019-06-07T14:51:38.989Z,28.89
2019-06-07T14:54:12.371Z,28.88
2019-06-07T14:56:45.725Z,28.92
2019-06-07T14:59:19.199Z,28.93
2019-06-07T15:01:52.535Z,28.89
2019-06-07T15:04:26.463Z,28.87
2019-06-07T15:06:59.578Z,28.93
2019-06-07T15:09:33.129Z,29.00
2019-06-07T15:12:06.291Z,29.00
2019-06-07T15:14:39.969Z,28.87
2019-06-07T15:17:12.676Z,28.83
2019-06-07T15:19:45.812Z,28.79
2019-06-07T15:22:18.869Z,28.72
2019-06-07T15:24:52.097Z,28.71
2019-06-07T15:27:25.440Z,28.74
2019-06-07T15:29:58.480Z,28.76
2019-06-07T15:32:32.676Z,28.76
2019-06-07T15:35:09.139Z,28.79
2019-06-07T15:37:42.579Z,28.83
2019-06-07T15:40:15.759Z,28.83
2019-06-07T15:42:52.849Z,28.76
2019-06-07T15:45:24.268Z,28.78
2019-06-07T15:47:57.939Z,28.82
2019-06-07T15:50:32.178Z,28.83
2019-06-07T15:53:05.108Z,28.85
2019-06-07T15:55:43.792Z,28.86
2019-06-07T15:58:12.867Z,28.85
2019-06-07T16:00:45.929Z,28.88
2019-06-07T16:03:19.296Z,28.89
2019-06-07T16:05:52.638Z,28.87
2019-06-07T16:08:25.778Z,28.84
2019-06-07T16:10:59.086Z,28.82
2019-06-07T16:13:32.555Z,28.77
2019-06-07T16:16:05.736Z,28.70
2019-06-07T16:18:39.682Z,28.66
2019-06-07T16:21:12.767Z,28.62
2019-06-07T16:23:46.138Z,28.58
2019-06-07T16:26:19.062Z,28.55
2019-06-07T16:28:52.322Z,28.52
2019-06-07T16:31:25.358Z,28.47
2019-06-07T16:33:58.601Z,28.46
2019-06-07T16:36:31.933Z,28.38
2019-06-07T16:39:08.717Z,28.32
2019-06-07T16:41:42.865Z,28.27
2019-06-07T16:44:15.837Z,28.22
2019-06-07T16:46:49.189Z,28.19
2019-06-07T16:49:22.694Z,28.19
2019-06-07T16:51:56.010Z,28.21
2019-06-07T16:54:29.268Z,28.20
2019-06-07T16:57:02.659Z,28.19
2019-06-07T16:59:36.802Z,28.20
2019-06-07T17:02:10.241Z,28.17
2019-06-07T17:04:43.616Z,28.18
2019-06-07T17:07:16.884Z,28.18
2019-06-07T17:09:50.092Z,28.14
2019-06-07T17:12:23.396Z,28.10
2019-06-07T17:14:56.967Z,28.09
2019-06-07T17:17:30.427Z,28.08
2019-06-07T17:20:05.191Z,28.04
2019-06-07T17:22:39.123Z,28.05
2019-06-07T17:25:12.190Z,28.09
2019-06-07T17:27:46.331Z,28.03
2019-06-07T17:30:20.709Z,27.99
2019-06-07T17:32:59.157Z,28.00
2019-06-07T17:35:29.056Z,28.00
2019-06-07T17:38:02.384Z,27.98
2019-06-07T17:40:36.419Z,27.96
2019-06-07T17:43:09.691Z,27.95
2019-06-07T17:45:43.451Z,27.93
2019-06-07T17:48:16.406Z,27.85
2019-06-07T17:50:49.993Z,27.81
2019-06-07T17:53:23.398Z,27.79
2019-06-07T17:55:56.651Z,27.76
2019-06-07T17:58:30.095Z,27.71
2019-06-07T18:01:03.341Z,27.72
2019-06-07T18:03:36.696Z,27.71
2019-06-07T18:06:10.047Z,27.72
2019-06-07T18:08:43.704Z,27.66
2019-06-07T18:11:17.862Z,27.62
2019-06-07T18:14:06.564Z,27.58
2019-06-07T18:16:25.496Z,27.53
2019-06-07T18:18:58.863Z,27.50
2019-06-07T18:21:32.153Z,27.49
2019-06-07T18:24:05.862Z,27.49
2019-06-07T18:26:39.154Z,27.46
2019-06-07T18:29:12.487Z,27.41
2019-06-07T18:31:46.742Z,27.38
2019-06-07T18:34:20.035Z,27.32
2019-06-07T18:36:53.358Z,27.28
2019-06-07T18:39:26.698Z,27.26
2019-06-07T18:41:59.848Z,27.19
2019-06-07T18:44:33.198Z,27.18
2019-06-07T18:47:06.556Z,27.13
2019-06-07T18:49:39.867Z,27.12
2019-06-07T18:52:20.421Z,27.10
2019-06-07T18:54:54.981Z,27.05
2019-06-07T18:57:28.916Z,26.96
2019-06-07T19:00:02.290Z,26.93
2019-06-07T19:02:35.542Z,26.90
2019-06-07T19:05:09.799Z,26.87
2019-06-07T19:07:42.403Z,26.85
2019-06-07T19:10:17.077Z,26.79
2019-06-07T19:12:50.834Z,26.73
2019-06-07T19:15:24.118Z,26.68
2019-06-07T19:17:58.142Z,26.63
2019-06-07T19:20:31.290Z,26.58
2019-06-07T19:23:05.110Z,26.51
2019-06-07T19:25:38.391Z,26.48
2019-06-07T19:28:11.654Z,26.46
2019-06-07T19:30:44.997Z,26.45
2019-06-07T19:33:18.245Z,26.38
2019-06-07T19:35:51.579Z,26.32
2019-06-07T19:38:24.844Z,26.28
2019-06-07T19:40:58.156Z,26.28
2019-06-07T19:43:31.441Z,26.24
2019-06-07T19:46:04.772Z,26.18
2019-06-07T19:48:37.685Z,26.15
2019-06-07T19:51:11.054Z,26.08
2019-06-07T19:53:44.119Z,26.03
2019-06-07T19:56:17.474Z,26.00
2019-06-07T19:58:50.621Z,25.98
2019-06-07T20:01:25.277Z,25.92
2019-06-07T20:03:59.927Z,25.83
2019-06-07T20:06:32.777Z,25.76
2019-06-07T20:09:08.445Z,25.74
2019-06-07T20:11:41.722Z,25.67
2019-06-07T20:14:15.069Z,25.67
2019-06-07T20:16:48.398Z,25.68
2019-06-07T20:19:21.660Z,25.64
2019-06-07T20:21:54.887Z,25.58
2019-06-07T20:24:28.047Z,25.52
2019-06-07T20:27:02.324Z,25.51
2019-06-07T20:29:35.572Z,25.49
2019-06-07T20:32:08.999Z,25.46
2019-06-07T20:34:44.799Z,25.47
2019-06-07T20:37:17.422Z,25.48
2019-06-07T20:39:50.035Z,25.48
2019-06-07T20:42:23.198Z,25.49
2019-06-07T20:44:57.522Z,25.45
2019-06-07T20:47:31.574Z,25.42
2019-06-07T20:50:06.610Z,25.40
2019-06-07T20:52:41.012Z,25.38
2019-06-07T20:55:14.311Z,25.34
2019-06-07T20:57:47.075Z,25.30
2019-06-07T21:00:22.026Z,25.30
2019-06-07T21:02:54.493Z,25.30
2019-06-07T21:05:27.104Z,25.29
2019-06-07T21:07:59.760Z,25.22
2019-06-07T21:10:32.374Z,25.21
2019-06-07T21:13:05.927Z,25.19
2019-06-07T21:15:48.252Z,25.16
2019-06-07T21:18:19.578Z,25.13
2019-06-07T21:20:47.670Z,25.10
2019-06-07T21:23:20.931Z,25.10
2019-06-07T21:25:55.017Z,25.07
2019-06-07T21:28:28.341Z,25.06
2019-06-07T21:31:03.284Z,25.03
2019-06-07T21:33:35.311Z,25.02
2019-06-07T21:36:09.767Z,24.99
2019-06-07T21:38:43.090Z,24.99
2019-06-07T21:41:16.331Z,24.97
2019-06-07T21:43:49.442Z,24.94
2019-06-07T21:46:22.607Z,24.97
2019-06-07T21:48:55.936Z,24.95
2019-06-07T21:51:29.969Z,24.90
2019-06-07T21:54:06.765Z,24.87
2019-06-07T21:56:37.945Z,24.85
2019-06-07T21:59:11.330Z,24.82
2019-06-07T22:01:44.390Z,24.79
2019-06-07T22:04:17.775Z,24.73
2019-06-07T22:06:51.116Z,24.70
2019-06-07T22:09:24.586Z,24.70
2019-06-07T22:11:57.917Z,24.68
2019-06-07T22:14:31.462Z,24.68
2019-06-07T22:17:05.852Z,24.63
2019-06-07T22:19:38.950Z,24.55
2019-06-07T22:22:12.932Z,24.49
2019-06-07T22:24:46.223Z,24.47
2019-06-07T22:27:19.527Z,24.50
2019-06-07T22:29:52.866Z,24.51
2019-06-07T22:32:26.123Z,24.48
2019-06-07T22:34:59.465Z,24.41
2019-06-07T22:37:32.706Z,24.38
2019-06-07T22:40:10.552Z,24.41
2019-06-07T22:42:43.479Z,24.40
2019-06-07T22:45:17.142Z,24.41
2019-06-07T22:47:49.976Z,24.42
2019-06-07T22:50:26.095Z,24.41
2019-06-07T22:52:59.451Z,24.31
2019-06-07T22:55:32.791Z,24.27
2019-06-07T22:58:06.045Z,24.23
2019-06-07T23:00:39.839Z,24.22
2019-06-07T23:03:14.900Z,24.22
2019-06-07T23:05:48.236Z,24.23
2019-06-07T23:08:21.563Z,24.22
2019-06-07T23:10:54.913Z,24.21
2019-06-07T23:13:28.168Z,24.18
2019-06-07T23:16:01.702Z,24.17
2019-06-07T23:18:35.018Z,24.17
2019-06-07T23:21:09.603Z,24.14
2019-06-07T23:23:42.484Z,24.07
2019-06-07T23:26:16.206Z,24.06
2019-06-07T23:28:49.491Z,23.99
2019-06-07T23:31:22.799Z,23.96
2019-06-07T23:33:56.060Z,23.87
2019-06-07T23:36:29.403Z,23.83
2019-06-07T23:39:02.665Z,23.81
2019-06-07T23:41:36.899Z,23.78
2019-06-07T23:44:11.028Z,23.75
2019-06-07T23:46:43.882Z,23.76
2019-06-07T23:49:17.604Z,23.77
2019-06-07T23:51:51.015Z,23.75
2019-06-07T23:54:24.261Z,23.70
2019-06-07T23:56:57.636Z,23.65
2019-06-07T23:59:30.771Z,23.58
